Walla Walla, Washington
Current Conditions -  °F | °C
As of 7:53 PM on Friday 19 Dec 2014 (Local Time) from KALW Reporting Station
Clear Clear  
Wind Chill: 39°   Ceiling: Unl
Heat Index: 39°   Visibility: 10mi
Dew Point: 35°   Wind: 3mph
Humidity: 86%   Direction: 140°SE
Pressure: 30.03"   Gusts: NA
Location:  46.07°N, 118.34°W
Report Text: KALW 200353Z AUTO 14003KT 10SM CLR 04/02 A3003 RMK AO2 SLP176 T00390017
Loading
Personal Weather Stations






























Interactive Weather Map New forecast layout! Learn more

10-Day Weather Forecast

Advertisements
Track Severe Weather on mobile